Terminal Aerodrome Forecast
Issued by NWS

Home | Current Version | Previous Version | Text Only | Print | Product List | Glossary On
Versions: 1 2 3 4 5 6 7 8 9 10 11 12 13
000
FTUS42 TJSJ 191124
TAFKPK
TAF
TKPK 191124Z 1912/2012 03007KT P6SM FEW022
     FM191400 06010KT P6SM FEW020 SCT030
     FM192200 04008KT P6SM FEW022
      AMD NOT SKED 2002/2011=

USA.gov is the U.S. government's official web portal to all federal, state and local government web resources and services.